Time;durP1;ratioP1;P1;durP2;ratioP2;P2;SDS_P1;SDS_P2;PMS_P1;PMS_P2;Temp;Humidity;BMP_temperature;BMP_pressure;BME280_temperature;BME280_humidity;BME280_pressure;Samples;Min_cycle;Max_cycle;Signal;HPM_P1;HPM_P2
2022/11/06 00:00:57;;;;;;;2.17;0.63;;;14.70;99.90;;;;;;4936895;29;20031;-80
2022/11/06 00:03:23;;;;;;;5.07;0.70;;;14.70;99.90;;;;;;4952882;29;20103;-79
2022/11/06 00:08:39;;;;;;;2.35;0.60;;;14.60;99.90;;;;;;5013848;28;20133;-80
2022/11/06 00:11:11;;;;;;;2.20;0.57;;;14.60;99.90;;;;;;5013459;28;20026;-81
2022/11/06 00:13:38;;;;;;;3.58;0.70;;;14.60;99.90;;;;;;5013095;28;20025;-81
2022/11/06 00:16:06;;;;;;;2.13;0.68;;;14.60;99.90;;;;;;4996066;28;20040;-79
2022/11/06 00:18:36;;;;;;;1.42;0.52;;;14.60;99.90;;;;;;5013533;28;20022;-80
2022/11/06 00:21:10;;;;;;;1.55;0.50;;;14.60;99.90;;;;;;5013152;28;20026;-80
2022/11/06 00:23:36;;;;;;;2.35;0.45;;;14.70;99.90;;;;;;4995160;28;20042;-81
2022/11/06 00:26:08;;;;;;;2.78;0.70;;;14.70;99.90;;;;;;4995795;28;20030;-79
2022/11/06 00:28:35;;;;;;;2.88;0.60;;;14.70;99.90;;;;;;4995280;28;20187;-81
2022/11/06 00:31:03;;;;;;;2.35;0.57;;;14.80;99.90;;;;;;4995431;28;20088;-80
2022/11/06 00:33:29;;;;;;;4.13;0.70;;;14.90;99.90;;;;;;4995085;28;20034;-81
2022/11/06 00:35:57;;;;;;;2.95;0.60;;;14.90;99.90;;;;;;4995186;28;20044;-80
2022/11/06 00:38:23;;;;;;;2.63;0.55;;;15.00;99.90;;;;;;5013104;28;20026;-81
2022/11/06 00:41:00;;;;;;;2.80;0.75;;;15.10;99.90;;;;;;5011470;28;20029;-79
2022/11/06 00:43:26;;;;;;;3.53;0.60;;;15.20;99.90;;;;;;5013108;28;20030;-80
2022/11/06 00:45:52;;;;;;;3.90;0.80;;;15.20;99.90;;;;;;4995675;28;20026;-80
2022/11/06 00:48:20;;;;;;;3.30;0.93;;;15.30;99.90;;;;;;5012742;28;20604;-81
2022/11/06 00:50:46;;;;;;;3.25;0.70;;;15.20;99.90;;;;;;5011317;28;20479;-81
2022/11/06 00:53:12;;;;;;;2.17;0.90;;;15.20;99.90;;;;;;5011201;28;20030;-80
2022/11/06 00:55:40;;;;;;;2.97;0.90;;;15.20;99.90;;;;;;5013032;28;20581;-78
2022/11/06 00:58:06;;;;;;;4.90;0.80;;;15.10;99.90;;;;;;5012612;28;20057;-80
2022/11/06 01:00:32;;;;;;;3.70;0.70;;;15.00;99.90;;;;;;5013051;28;20102;-80
2022/11/06 01:02:58;;;;;;;0.50;0.50;;;15.00;99.90;;;;;;5012569;28;20077;-81
2022/11/06 01:05:24;;;;;;;2.75;0.55;;;14.90;99.90;;;;;;5012914;28;20041;-81
2022/11/06 01:07:50;;;;;;;2.00;0.50;;;14.80;99.90;;;;;;5012597;28;20064;-79
2022/11/06 01:10:16;;;;;;;1.67;0.50;;;14.70;99.90;;;;;;5012332;28;20033;-79
2022/11/06 01:12:42;;;;;;;1.10;0.50;;;14.80;99.90;;;;;;5012544;28;20438;-80
2022/11/06 01:15:09;;;;;;;1.77;0.70;;;14.70;99.90;;;;;;5012267;28;20026;-80
2022/11/06 01:17:35;;;;;;;1.13;0.35;;;14.70;99.90;;;;;;5012198;28;20104;-80
2022/11/06 01:20:03;;;;;;;2.80;0.52;;;14.70;99.90;;;;;;5012148;28;20029;-79
2022/11/06 01:22:30;;;;;;;2.33;0.50;;;14.90;99.90;;;;;;5012234;28;20033;-79
2022/11/06 01:24:56;;;;;;;1.17;0.55;;;14.90;99.90;;;;;;5012408;28;20022;-79
2022/11/06 01:27:22;;;;;;;3.00;0.50;;;14.90;99.90;;;;;;4994798;28;20092;-79
2022/11/06 01:30:06;;;;;;;2.73;0.80;;;14.90;99.90;;;;;;5012473;28;20030;-81
2022/11/06 01:32:33;;;;;;;2.88;0.60;;;14.90;99.90;;;;;;5012780;28;20048;-79
2022/11/06 01:34:59;;;;;;;2.90;0.50;;;14.90;99.90;;;;;;4994734;28;20034;-79
2022/11/06 01:37:26;;;;;;;1.50;0.70;;;14.80;99.90;;;;;;4994140;28;20132;-79
2022/11/06 01:39:53;;;;;;;1.37;0.30;;;14.90;99.90;;;;;;5012202;28;20079;-81
2022/11/06 01:42:20;;;;;;;1.83;0.55;;;14.90;99.90;;;;;;5012011;28;20271;-80
2022/11/06 01:45:28;;;;;;;2.83;0.50;;;14.80;99.90;;;;;;5011744;28;20175;-79
2022/11/06 01:47:56;;;;;;;1.05;0.43;;;14.80;99.90;;;;;;5012660;28;20319;-81
2022/11/06 01:50:22;;;;;;;4.25;0.60;;;14.70;99.90;;;;;;5011852;28;20103;-80
2022/11/06 01:52:50;;;;;;;4.78;0.90;;;14.70;99.90;;;;;;5011809;28;20101;-79
2022/11/06 01:55:28;;;;;;;2.97;0.68;;;14.60;99.90;;;;;;5012197;28;20026;-81
2022/11/06 01:57:56;;;;;;;5.07;1.58;;;14.60;99.90;;;;;;5014741;28;20111;-79
2022/11/06 02:00:23;;;;;;;4.65;0.90;;;14.60;99.90;;;;;;5012076;28;20508;-80
2022/11/06 02:02:49;;;;;;;;;;;14.60;99.90;;;;;;5012438;28;20026;-79
2022/11/06 02:05:16;;;;;;;;;;;14.70;99.90;;;;;;5012281;28;19940;-81
2022/11/06 02:07:42;;;;;;;;;;;14.70;99.90;;;;;;5012191;28;19917;-81
2022/11/06 02:10:09;;;;;;;;;;;14.80;99.90;;;;;;4994900;28;19905;-81
2022/11/06 02:13:02;;;;;;;8.30;1.45;;;14.80;99.90;;;;;;5012264;28;19905;-80
2022/11/06 02:15:42;;;;;;;7.95;1.50;;;14.90;99.90;;;;;;5012283;28;20371;-79
2022/11/06 02:18:40;;;;;;;8.95;1.70;;;14.90;99.90;;;;;;5011090;28;20117;-80
2022/11/06 02:21:33;;;;;;;9.23;1.05;;;14.90;99.90;;;;;;4942502;28;20036;-79
2022/11/06 02:24:33;;;;;;;7.30;1.27;;;15.00;99.90;;;;;;5012155;28;20064;-79
2022/11/06 02:27:09;;;;;;;6.43;1.40;;;15.00;99.90;;;;;;5012127;28;20434;-80
2022/11/06 02:29:56;;;;;;;8.38;1.10;;;15.00;99.90;;;;;;5012167;28;20046;-80
2022/11/06 02:32:43;;;;;;;5.53;1.00;;;15.00;99.90;;;;;;4998506;28;20041;-80
2022/11/06 02:35:23;;;;;;;8.18;1.75;;;15.00;99.90;;;;;;5011982;28;20026;-80
2022/11/06 02:37:58;;;;;;;9.82;1.35;;;15.00;99.90;;;;;;5012121;28;20022;-80
2022/11/06 02:40:32;;;;;;;9.38;1.13;;;15.00;99.90;;;;;;5011928;28;20110;-81
2022/11/06 02:43:01;;;;;;;7.47;1.08;;;15.10;99.90;;;;;;4993864;28;20034;-80
2022/11/06 02:45:30;;;;;;;8.48;1.27;;;15.10;99.90;;;;;;5011656;28;20501;-81
2022/11/06 02:47:59;;;;;;;7.18;1.20;;;15.10;99.90;;;;;;5011592;28;20447;-80
2022/11/06 02:50:32;;;;;;;11.20;1.50;;;15.10;99.90;;;;;;4986300;28;20110;-82
2022/11/06 02:53:08;;;;;;;11.20;1.50;;;15.10;99.90;;;;;;5035365;28;20025;-80
2022/11/06 02:55:39;;;;;;;11.45;1.40;;;15.10;99.90;;;;;;5034814;28;20474;-79
2022/11/06 02:58:41;;;;;;;9.80;1.63;;;15.10;99.90;;;;;;5034797;28;20107;-81
2022/11/06 03:01:29;;;;;;;11.30;1.30;;;15.10;99.90;;;;;;5017304;28;20053;-81
2022/11/06 03:04:09;;;;;;;8.02;1.33;;;15.10;99.90;;;;;;5002923;28;20523;-81
2022/11/06 03:06:42;;;;;;;8.48;1.20;;;15.10;99.90;;;;;;5018870;28;20029;-81
2022/11/06 03:09:18;;;;;;;7.10;1.38;;;15.10;99.90;;;;;;5016643;28;20033;-80
2022/11/06 03:11:47;;;;;;;7.13;1.20;;;15.10;99.90;;;;;;5034934;28;20148;-81
2022/11/06 03:14:25;;;;;;;8.38;1.45;;;15.10;99.90;;;;;;5034824;28;20337;-80
2022/11/06 03:17:24;;;;;;;9.90;1.60;;;15.10;99.90;;;;;;5034552;28;20026;-80
2022/11/06 03:20:07;;;;;;;9.00;1.60;;;15.10;99.90;;;;;;4954127;29;20039;-81
2022/11/06 03:23:04;;;;;;;9.50;1.38;;;15.00;99.90;;;;;;4954472;29;20035;-81
2022/11/06 03:26:00;;;;;;;8.48;1.23;;;15.00;99.90;;;;;;4954281;29;20167;-80
2022/11/06 03:28:38;;;;;;;9.55;1.38;;;14.90;99.90;;;;;;4954391;29;20094;-80
2022/11/06 03:31:11;;;;;;;11.18;1.67;;;14.90;99.90;;;;;;4954283;29;20040;-80
2022/11/06 03:33:45;;;;;;;12.00;1.75;;;14.80;99.90;;;;;;4954154;29;20110;-81
2022/11/06 03:36:35;;;;;;;8.05;1.30;;;14.80;99.90;;;;;;4954181;29;20122;-81
2022/11/06 03:39:08;;;;;;;9.82;1.23;;;14.90;99.90;;;;;;4938379;29;20031;-80
2022/11/06 03:41:47;;;;;;;10.45;1.90;;;15.00;99.90;;;;;;4954417;29;20523;-81
2022/11/06 03:44:18;;;;;;;10.20;1.40;;;15.00;99.90;;;;;;4951600;29;20129;-80
2022/11/06 03:46:49;;;;;;;7.72;1.50;;;15.00;99.90;;;;;;4954179;29;20038;-80
2022/11/06 03:49:32;;;;;;;12.45;1.80;;;14.90;99.90;;;;;;4953974;29;20043;-81
2022/11/06 03:52:07;;;;;;;8.93;1.58;;;14.90;99.90;;;;;;4951838;29;20396;-81
2022/11/06 03:55:02;;;;;;;14.02;2.00;;;15.00;99.90;;;;;;5059580;22;20060;-80
2022/11/06 03:57:53;;;;;;;12.30;1.60;;;15.00;99.90;;;;;;5075615;28;20102;-79
2022/11/06 04:00:19;;;;;;;9.57;1.98;;;15.00;99.90;;;;;;5093847;28;20024;-80
2022/11/06 04:03:05;;;;;;;10.40;1.35;;;15.10;99.90;;;;;;5093474;28;20032;-81
2022/11/06 04:05:39;;;;;;;10.23;1.80;;;15.10;99.90;;;;;;5093796;28;20028;-80
2022/11/06 04:14:04;;;;;;;12.20;1.30;;;15.20;99.90;;;;;;5011429;28;20085;-80
2022/11/06 04:16:45;;;;;;;10.82;1.75;;;15.20;99.90;;;;;;5011377;28;20022;-81
2022/11/06 04:19:24;;;;;;;13.93;2.30;;;15.20;99.90;;;;;;5011550;28;20038;-81
2022/11/06 04:22:05;;;;;;;10.07;1.52;;;15.10;99.90;;;;;;5011570;28;20085;-79
2022/11/06 04:27:42;;;;;;;12.35;2.25;;;15.00;99.90;;;;;;5011493;28;20354;-78
2022/11/06 04:30:13;;;;;;;10.85;2.17;;;15.00;99.90;;;;;;4991857;28;20471;-80
2022/11/06 04:36:07;;;;;;;12.75;1.73;;;14.90;99.90;;;;;;5001334;28;20036;-80
2022/11/06 04:38:59;;;;;;;8.40;1.80;;;14.90;99.90;;;;;;5012946;28;20041;-80
2022/11/06 04:41:38;;;;;;;8.93;1.45;;;14.90;99.90;;;;;;4979604;28;20104;-75
2022/11/06 04:44:26;;;;;;;8.75;1.40;;;14.80;99.90;;;;;;4967550;28;20477;-80
2022/11/06 04:46:59;;;;;;;11.55;2.08;;;14.80;99.90;;;;;;5051359;28;20025;-81
2022/11/06 04:49:27;;;;;;;7.32;1.40;;;14.80;99.90;;;;;;5050595;28;20110;-82
2022/11/06 04:51:54;;;;;;;10.20;1.58;;;14.70;99.90;;;;;;5050480;28;20117;-82
2022/11/06 04:54:26;;;;;;;13.93;1.90;;;14.70;99.90;;;;;;5050075;28;20570;-81
2022/11/06 04:56:59;;;;;;;8.38;1.40;;;14.60;99.90;;;;;;5050178;28;20041;-82
2022/11/06 04:59:25;;;;;;;11.43;1.70;;;14.70;99.90;;;;;;5050748;28;20070;-81
2022/11/06 05:01:52;;;;;;;10.45;1.58;;;14.70;99.90;;;;;;5050244;28;20037;-80
2022/11/06 05:04:18;;;;;;;11.02;1.63;;;14.70;99.90;;;;;;5063223;28;20032;-80
2022/11/06 05:06:45;;;;;;;9.73;1.55;;;14.70;99.90;;;;;;5081416;28;20040;-81
2022/11/06 05:09:11;;;;;;;10.02;1.60;;;14.70;99.90;;;;;;5090154;28;20035;-82
2022/11/06 05:11:38;;;;;;;10.23;1.65;;;14.70;99.90;;;;;;5094932;28;20043;-81
2022/11/06 05:17:17;;;;;;;8.70;1.38;;;14.60;99.90;;;;;;5119425;22;20101;-81
2022/11/06 05:23:06;;;;;;;10.25;1.50;;;14.70;99.90;;;;;;5060717;22;20060;-79
2022/11/06 05:25:42;;;;;;;10.80;1.88;;;14.60;99.90;;;;;;5052311;28;20481;-76
2022/11/06 05:28:08;;;;;;;10.00;1.55;;;14.60;99.90;;;;;;5052048;28;20109;-80
2022/11/06 05:36:11;;;;;;;14.85;1.80;;;14.80;99.90;;;;;;5099464;22;20055;-80
2022/11/06 05:38:46;;;;;;;12.38;1.80;;;14.80;99.90;;;;;;5099318;22;20048;-80
2022/11/06 05:41:19;;;;;;;10.52;1.73;;;14.70;99.90;;;;;;5075907;28;20082;-81
2022/11/06 05:46:14;;;;;;;10.82;1.63;;;14.80;99.90;;;;;;5076741;23;20126;-81
2022/11/06 05:48:42;;;;;;;8.43;1.50;;;14.80;99.90;;;;;;5036949;28;20025;-75
2022/11/06 05:51:08;;;;;;;12.55;2.20;;;14.90;99.90;;;;;;5073353;28;20036;-81
2022/11/06 05:53:36;;;;;;;11.65;1.27;;;14.90;99.90;;;;;;5054194;28;20025;-83
2022/11/06 05:56:21;;;;;;;9.90;1.20;;;15.00;99.90;;;;;;5054489;28;20414;-81
2022/11/06 05:58:52;;;;;;;9.00;1.45;;;15.20;99.90;;;;;;5072267;28;20029;-83
2022/11/06 06:01:18;;;;;;;11.02;1.33;;;15.50;99.90;;;;;;5071557;28;20063;-82
2022/11/06 06:03:44;;;;;;;9.20;1.98;;;15.90;99.90;;;;;;5068320;28;20077;-81
2022/11/06 06:06:10;;;;;;;10.67;1.50;;;16.50;99.90;;;;;;5071752;28;20030;-81
2022/11/06 06:08:36;;;;;;;12.03;2.07;;;17.20;99.90;;;;;;5071576;28;20342;-81
2022/11/06 06:11:06;;;;;;;11.43;1.97;;;18.00;99.90;;;;;;5071784;28;20271;-81
2022/11/06 06:13:34;;;;;;;16.15;2.30;;;18.80;99.90;;;;;;5054624;28;20263;-81
2022/11/06 06:16:01;;;;;;;13.85;1.50;;;19.30;99.90;;;;;;5072305;28;20104;-81
2022/11/06 06:18:28;;;;;;;8.68;1.60;;;20.20;99.90;;;;;;5072146;28;20393;-82
2022/11/06 06:20:56;;;;;;;13.52;1.75;;;20.80;99.90;;;;;;5071899;28;20024;-81
2022/11/06 06:23:22;;;;;;;14.98;1.75;;;21.10;99.90;;;;;;5073588;28;20116;-81
2022/11/06 06:25:48;;;;;;;8.38;1.95;;;21.70;99.90;;;;;;5080077;28;20044;-82
2022/11/06 06:28:14;;;;;;;8.48;2.00;;;22.30;99.90;;;;;;5095895;28;20056;-82
2022/11/06 06:30:41;;;;;;;8.98;1.95;;;22.90;99.90;;;;;;5095441;28;20086;-80
2022/11/06 06:33:09;;;;;;;12.10;2.72;;;23.40;99.90;;;;;;5095390;28;20446;-82
2022/11/06 06:35:35;;;;;;;12.43;2.00;;;23.10;99.90;;;;;;5095646;28;20106;-80
2022/11/06 06:38:01;;;;;;;9.32;1.95;;;24.00;99.90;;;;;;5077329;28;20508;-80
2022/11/06 06:40:28;;;;;;;11.35;2.15;;;24.60;99.90;;;;;;5095102;28;20157;-81
2022/11/06 06:42:56;;;;;;;10.27;2.10;;;24.90;99.90;;;;;;5094832;28;20112;-81
2022/11/06 06:45:22;;;;;;;8.10;1.52;;;24.80;99.90;;;;;;5094693;28;20044;-80
2022/11/06 06:47:48;;;;;;;11.60;1.92;;;25.10;99.90;;;;;;5094758;28;20108;-80
2022/11/06 06:50:14;;;;;;;12.30;1.70;;;25.20;99.90;;;;;;5094686;28;20027;-80
2022/11/06 06:52:40;;;;;;;9.10;1.73;;;25.00;99.90;;;;;;5094712;28;20115;-79
2022/11/06 06:55:07;;;;;;;10.68;2.00;;;25.40;99.90;;;;;;5091153;28;20021;-80
2022/11/06 06:57:32;;;;;;;;;;;25.90;99.90;;;;;;5074815;28;20047;-82
2022/11/06 07:00:00;;;;;;;11.48;2.03;;;25.90;99.90;;;;;;5074735;28;19904;-81
2022/11/06 07:02:26;;;;;;;7.13;1.50;;;26.30;99.90;;;;;;5056242;28;20020;-80
2022/11/06 07:04:52;;;;;;;7.55;1.50;;;26.20;99.90;;;;;;5074753;28;20023;-80
2022/11/06 07:07:18;;;;;;;8.18;2.03;;;26.80;99.90;;;;;;5056229;28;20025;-80
2022/11/06 07:09:47;;;;;;;8.38;1.48;;;27.60;99.90;;;;;;5067984;28;20105;-81
2022/11/06 07:12:15;;;;;;;5.55;1.20;;;28.10;99.90;;;;;;5071159;28;20020;-80
2022/11/06 07:14:41;;;;;;;13.50;3.47;;;28.40;99.90;;;;;;5056256;28;20398;-81
2022/11/06 07:17:07;;;;;;;38.20;11.48;;;29.00;99.90;;;;;;5074292;28;20039;-81
2022/11/06 07:19:34;;;;;;;25.48;12.55;;;29.30;99.90;;;;;;5074333;28;20380;-80
2022/11/06 07:22:00;;;;;;;35.88;17.15;;;28.40;99.90;;;;;;5056594;28;20029;-81
2022/11/06 07:24:26;;;;;;;21.10;9.52;;;28.50;99.90;;;;;;5056095;28;20028;-81
2022/11/06 07:26:52;;;;;;;20.52;10.80;;;28.20;99.90;;;;;;5074216;28;20031;-81
2022/11/06 07:29:18;;;;;;;13.15;4.90;;;27.20;99.90;;;;;;5074527;28;20465;-82
2022/11/06 07:31:44;;;;;;;7.45;2.28;;;26.40;99.90;;;;;;5068479;28;20053;-80
2022/11/06 07:34:11;;;;;;;10.20;2.78;;;25.30;99.90;;;;;;5055332;28;20381;-82
2022/11/06 07:36:37;;;;;;;25.52;5.55;;;24.70;99.90;;;;;;5036019;28;20033;-80
2022/11/06 07:39:03;;;;;;;9.80;2.58;;;24.30;99.90;;;;;;5054278;28;20299;-80
2022/11/06 07:41:29;;;;;;;11.40;2.20;;;24.00;99.90;;;;;;5036333;28;20032;-81
2022/11/06 07:43:56;;;;;;;6.65;2.03;;;23.90;99.90;;;;;;5053685;28;20035;-80
2022/11/06 07:46:22;;;;;;;6.97;1.52;;;23.90;99.90;;;;;;5035821;28;20036;-81
2022/11/06 07:48:48;;;;;;;7.88;2.00;;;23.80;99.90;;;;;;5035606;28;20175;-81
2022/11/06 07:51:14;;;;;;;7.88;2.50;;;23.80;99.90;;;;;;5053559;28;20484;-80
2022/11/06 07:53:40;;;;;;;11.85;2.08;;;23.70;99.90;;;;;;5054060;28;20163;-80
2022/11/06 07:56:07;;;;;;;11.23;2.03;;;23.70;99.90;;;;;;5035563;28;20116;-81
2022/11/06 07:58:34;;;;;;;10.88;2.30;;;23.50;99.90;;;;;;5053976;28;20462;-81
2022/11/06 08:01:01;;;;;;;13.07;2.67;;;23.50;99.90;;;;;;5053850;28;20111;-83
2022/11/06 08:03:31;;;;;;;11.00;2.28;;;23.50;99.90;;;;;;5035705;28;20128;-82
2022/11/06 08:05:58;;;;;;;8.85;1.95;;;23.60;99.90;;;;;;5036123;28;20033;-82
2022/11/06 08:08:24;;;;;;;7.43;1.50;;;23.80;99.90;;;;;;5035436;28;20021;-81
2022/11/06 08:10:52;;;;;;;8.77;1.63;;;23.60;99.90;;;;;;5053600;28;20110;-83
2022/11/06 08:13:19;;;;;;;13.60;4.00;;;23.70;99.90;;;;;;5053503;28;20419;-82
2022/11/06 08:15:45;;;;;;;6.53;1.80;;;23.50;99.90;;;;;;5053536;28;20105;-80
2022/11/06 08:18:11;;;;;;;11.07;1.90;;;23.30;99.90;;;;;;5053808;28;20035;-79
2022/11/06 08:20:39;;;;;;;9.63;2.17;;;23.50;99.90;;;;;;5053511;28;20438;-79
2022/11/06 08:23:06;;;;;;;8.70;1.52;;;23.30;99.90;;;;;;5053616;28;20086;-80
2022/11/06 08:25:33;;;;;;;9.20;1.75;;;23.20;99.90;;;;;;5053577;28;20104;-79
2022/11/06 08:28:01;;;;;;;8.85;2.13;;;23.10;99.90;;;;;;5052947;28;20079;-79
2022/11/06 08:30:29;;;;;;;9.57;1.67;;;23.20;99.90;;;;;;5053250;28;20082;-81
2022/11/06 08:33:00;;;;;;;12.23;2.35;;;23.30;99.90;;;;;;5035152;28;20119;-81
2022/11/06 08:35:26;;;;;;;6.45;2.10;;;23.20;99.90;;;;;;5034413;28;20381;-79
2022/11/06 08:37:52;;;;;;;6.60;2.20;;;23.10;99.90;;;;;;5052666;28;20449;-81
2022/11/06 08:40:19;;;;;;;10.23;2.08;;;23.30;99.90;;;;;;5052760;28;20059;-80
2022/11/06 08:42:45;;;;;;;9.38;1.73;;;23.30;99.90;;;;;;5053480;28;20094;-81
2022/11/06 08:45:12;;;;;;;13.70;2.45;;;23.30;99.90;;;;;;5052550;28;20075;-82
2022/11/06 08:47:38;;;;;;;10.45;2.30;;;23.40;99.90;;;;;;5033807;28;20479;-79
2022/11/06 08:50:04;;;;;;;;;;;23.30;99.90;;;;;;5053287;28;20025;-82
2022/11/06 08:52:30;;;;;;;;;;;23.20;99.90;;;;;;5035805;28;19926;-84
2022/11/06 08:54:56;;;;;;;6.38;1.40;;;23.20;99.90;;;;;;5034790;28;20356;-83
2022/11/06 08:57:26;;;;;;;8.20;2.05;;;23.20;99.90;;;;;;5052437;28;20142;-82
2022/11/06 08:59:52;;;;;;;9.98;1.73;;;22.90;99.90;;;;;;5052863;28;20027;-82
2022/11/06 09:02:18;;;;;;;9.00;1.80;;;22.60;99.90;;;;;;5052403;28;20017;-82
2022/11/06 09:04:44;;;;;;;16.48;2.45;;;22.60;99.90;;;;;;5052795;28;20095;-83
2022/11/06 09:07:10;;;;;;;9.63;1.58;;;22.50;99.90;;;;;;5052950;28;20057;-84
2022/11/06 09:09:41;;;;;;;8.82;1.88;;;22.40;99.90;;;;;;5083596;28;20130;-84
2022/11/06 09:12:10;;;;;;;10.15;2.08;;;22.10;99.90;;;;;;5083131;28;20051;-86
2022/11/06 09:14:38;;;;;;;13.35;2.35;;;22.10;99.90;;;;;;5054150;28;20430;-86
2022/11/06 09:17:05;;;;;;;7.95;2.03;;;22.00;99.90;;;;;;5054416;28;20334;-85
2022/11/06 09:19:31;;;;;;;9.15;1.58;;;21.80;99.90;;;;;;5072420;28;20028;-84
2022/11/06 09:21:57;;;;;;;11.60;1.90;;;21.60;99.90;;;;;;5072185;28;20031;-85
2022/11/06 09:24:23;;;;;;;8.10;1.88;;;21.50;99.90;;;;;;5054481;28;20108;-85
2022/11/06 09:26:49;;;;;;;9.43;1.98;;;21.60;99.90;;;;;;5072909;28;20032;-84
2022/11/06 09:29:15;;;;;;;7.22;1.52;;;21.70;99.90;;;;;;5072804;28;20031;-85
2022/11/06 09:31:42;;;;;;;7.97;1.90;;;21.60;99.90;;;;;;5072913;28;20036;-85
2022/11/06 09:34:08;;;;;;;11.05;2.80;;;21.50;99.90;;;;;;5072372;28;20024;-85
2022/11/06 09:36:35;;;;;;;10.98;1.85;;;21.40;99.90;;;;;;5072636;28;20017;-85
2022/11/06 09:39:01;;;;;;;7.68;1.58;;;21.60;99.90;;;;;;5072440;28;20071;-85
2022/11/06 09:41:48;;;;;;;10.48;2.00;;;21.50;99.90;;;;;;5072641;28;20028;-84
2022/11/06 09:45:01;;;;;;;8.32;1.65;;;21.60;99.90;;;;;;5053712;28;20056;-83
2022/11/06 09:47:33;;;;;;;9.75;2.35;;;21.70;99.90;;;;;;5053925;28;20124;-82
2022/11/06 09:50:02;;;;;;;10.30;2.05;;;21.80;99.90;;;;;;5072041;28;20025;-83
2022/11/06 09:52:46;;;;;;;12.57;2.10;;;21.80;99.90;;;;;;5071679;28;20134;-82
2022/11/06 09:55:30;;;;;;;18.05;2.65;;;21.60;99.90;;;;;;5071524;28;20389;-84
2022/11/06 09:58:04;;;;;;;9.50;1.88;;;21.40;99.90;;;;;;5072849;28;20498;-84
2022/11/06 10:00:30;;;;;;;8.13;1.55;;;21.40;99.90;;;;;;5075553;28;20036;-85
2022/11/06 10:03:11;;;;;;;8.23;1.90;;;21.50;99.90;;;;;;5075097;28;20036;-85
2022/11/06 10:05:42;;;;;;;9.27;1.80;;;21.70;99.90;;;;;;5056843;28;20058;-84
2022/11/06 10:08:23;;;;;;;10.00;2.22;;;21.90;99.90;;;;;;5056780;28;20112;-86
2022/11/06 10:11:16;;;;;;;11.18;1.77;;;22.30;99.90;;;;;;5074837;28;20108;-83
2022/11/06 10:13:48;;;;;;;4.38;1.10;;;22.60;99.90;;;;;;5074638;28;20046;-84
2022/11/06 10:16:33;;;;;;;10.88;2.30;;;22.60;99.90;;;;;;5074528;28;20366;-83
2022/11/06 10:19:09;;;;;;;7.20;1.48;;;22.50;99.90;;;;;;5074686;28;20043;-83
2022/11/06 10:21:50;;;;;;;10.23;2.00;;;22.70;99.90;;;;;;5074857;28;20021;-84
2022/11/06 10:24:35;;;;;;;8.95;1.52;;;22.70;99.90;;;;;;5074076;28;20043;-84
2022/11/06 10:27:04;;;;;;;8.82;1.60;;;22.90;99.90;;;;;;5073196;28;20032;-79
2022/11/06 10:30:07;;;;;;;7.60;1.38;;;23.30;99.90;;;;;;5074692;28;20044;-84
2022/11/06 10:32:58;;;;;;;6.68;1.42;;;23.40;99.90;;;;;;5072123;28;20181;-83
2022/11/06 10:35:47;;;;;;;8.50;1.63;;;23.10;99.90;;;;;;5076612;28;20028;-84
2022/11/06 10:38:17;;;;;;;4.53;1.00;;;23.20;99.90;;;;;;5074715;28;20017;-84
2022/11/06 10:40:45;;;;;;;8.98;1.50;;;23.10;99.90;;;;;;5056128;28;20055;-84
2022/11/06 10:43:31;;;;;;;8.25;1.75;;;23.00;99.90;;;;;;5074255;28;20119;-83
2022/11/06 10:46:15;;;;;;;9.35;2.00;;;22.70;99.90;;;;;;5074232;28;20063;-82
2022/11/06 10:48:53;;;;;;;7.00;1.40;;;22.60;99.90;;;;;;5074507;28;20428;-80
2022/11/06 10:52:12;;;;;;;10.52;1.92;;;22.70;99.90;;;;;;5075370;28;20055;-83
2022/11/06 10:54:59;;;;;;;9.32;1.63;;;22.50;99.90;;;;;;5056634;28;20047;-83
2022/11/06 10:57:48;;;;;;;11.23;1.70;;;22.30;99.90;;;;;;5074341;28;20024;-83
2022/11/06 11:00:15;;;;;;;7.72;1.50;;;22.10;99.90;;;;;;5073877;28;20346;-83
2022/11/06 11:02:45;;;;;;;;;;;22.00;99.90;;;;;;5081482;28;20032;-82
2022/11/06 11:05:15;;;;;;;8.82;1.50;;;21.80;99.90;;;;;;5075689;28;19908;-81
2022/11/06 11:07:44;;;;;;;13.85;1.85;;;21.70;99.90;;;;;;5094131;28;20463;-81
2022/11/06 11:10:27;;;;;;;6.47;1.60;;;21.70;99.90;;;;;;5090345;28;20498;-78
2022/11/06 11:12:59;;;;;;;7.55;1.05;;;21.80;99.90;;;;;;5073872;28;20122;-83
2022/11/06 11:15:30;;;;;;;7.10;1.27;;;21.70;99.90;;;;;;5074195;28;20023;-83
2022/11/06 11:18:17;;;;;;;7.32;1.60;;;21.80;99.90;;;;;;5055450;28;20041;-83
2022/11/06 11:20:48;;;;;;;5.45;1.33;;;21.90;99.90;;;;;;5073407;28;20456;-83
2022/11/06 11:23:24;;;;;;;7.57;1.75;;;22.10;99.90;;;;;;5073408;28;20115;-84
2022/11/06 11:25:53;;;;;;;8.05;1.25;;;22.20;99.90;;;;;;5073183;28;20116;-83
2022/11/06 11:28:26;;;;;;;8.40;1.23;;;22.10;99.90;;;;;;5073286;28;20039;-82
2022/11/06 11:31:14;;;;;;;4.10;1.10;;;22.00;99.90;;;;;;5055367;28;20526;-81
2022/11/06 11:33:52;;;;;;;6.53;1.02;;;22.20;99.90;;;;;;5054929;28;20116;-83
2022/11/06 11:36:18;;;;;;;8.55;1.45;;;22.50;99.90;;;;;;5073085;28;20134;-81
2022/11/06 11:38:44;;;;;;;7.50;1.48;;;22.20;99.90;;;;;;5072398;28;20370;-82
2022/11/06 11:41:22;;;;;;;7.88;1.50;;;22.10;99.90;;;;;;5073320;28;20053;-82
2022/11/06 11:44:03;;;;;;;5.97;1.15;;;22.20;99.90;;;;;;5073433;28;20040;-81
2022/11/06 11:46:29;;;;;;;6.93;1.40;;;22.30;99.90;;;;;;5073448;28;20397;-81
2022/11/06 11:48:57;;;;;;;6.47;1.40;;;22.10;99.90;;;;;;5073986;28;20419;-82
2022/11/06 11:51:46;;;;;;;6.68;1.00;;;22.10;99.90;;;;;;5074143;28;20024;-81
2022/11/06 11:54:14;;;;;;;6.97;1.50;;;21.90;99.90;;;;;;5072825;28;20032;-81
2022/11/06 11:56:47;;;;;;;8.20;1.70;;;21.90;99.90;;;;;;5071978;28;20385;-83
2022/11/06 11:59:22;;;;;;;10.93;2.03;;;22.00;99.90;;;;;;5058763;28;20089;-81
2022/11/06 12:01:51;;;;;;;4.20;1.17;;;22.30;99.90;;;;;;5062713;28;20021;-80
2022/11/06 12:04:20;;;;;;;5.05;1.35;;;22.60;99.90;;;;;;5072017;28;20036;-74
2022/11/06 12:06:59;;;;;;;7.72;1.30;;;22.60;99.90;;;;;;5072536;28;20031;-71
2022/11/06 12:09:27;;;;;;;7.40;1.33;;;22.30;99.90;;;;;;5072201;28;20495;-72
2022/11/06 12:11:55;;;;;;;8.55;1.48;;;22.20;99.90;;;;;;5072282;28;20046;-72
2022/11/06 12:14:38;;;;;;;5.85;1.30;;;22.10;99.90;;;;;;5071792;28;20024;-73
2022/11/06 12:17:23;;;;;;;6.32;1.20;;;22.10;99.90;;;;;;5053357;28;20028;-73
2022/11/06 12:20:04;;;;;;;6.60;1.40;;;22.30;99.90;;;;;;5040810;28;20100;-70
2022/11/06 12:22:37;;;;;;;5.28;1.17;;;22.10;99.90;;;;;;5066631;28;20044;-71
2022/11/06 12:25:08;;;;;;;6.70;1.40;;;22.20;99.90;;;;;;5064256;28;20040;-80
2022/11/06 12:27:42;;;;;;;10.10;1.80;;;22.30;99.90;;;;;;5064650;28;20048;-67
2022/11/06 12:30:17;;;;;;;8.30;1.50;;;22.20;99.90;;;;;;5060328;28;20055;-70
2022/11/06 12:33:17;;;;;;;11.38;1.88;;;22.10;99.90;;;;;;5053909;28;20029;-70
2022/11/06 12:36:00;;;;;;;7.20;1.40;;;22.10;99.90;;;;;;5051605;28;20025;-68
2022/11/06 12:38:35;;;;;;;7.47;1.67;;;21.90;99.90;;;;;;5051546;28;20033;-69
2022/11/06 12:41:48;;;;;;;8.02;1.40;;;21.80;99.90;;;;;;5068076;28;20039;-69
2022/11/06 12:44:17;;;;;;;8.43;1.65;;;21.50;99.90;;;;;;5065375;28;20097;-68
2022/11/06 12:46:42;;;;;;;8.98;1.45;;;21.40;99.90;;;;;;5071770;28;20028;-68
2022/11/06 12:49:33;;;;;;;7.10;1.73;;;21.50;99.90;;;;;;5069987;28;20037;-70
2022/11/06 12:52:18;;;;;;;11.35;1.58;;;21.50;99.90;;;;;;5069551;28;20048;-69
2022/11/06 12:55:25;;;;;;;7.78;1.60;;;21.40;99.90;;;;;;5036105;28;20474;-69
2022/11/06 12:58:10;;;;;;;8.00;1.60;;;21.30;99.90;;;;;;5051372;28;20103;-68
2022/11/06 13:01:01;;;;;;;12.23;1.70;;;21.30;99.90;;;;;;5051421;28;20048;-68
2022/11/06 13:03:44;;;;;;;10.43;1.50;;;21.20;99.90;;;;;;5004432;28;20037;-68
2022/11/06 13:06:48;;;;;;;8.30;1.75;;;21.30;99.90;;;;;;5063007;28;20031;-70
2022/11/06 13:09:28;;;;;;;8.55;1.70;;;21.60;99.90;;;;;;5070179;28;20029;-70
2022/11/06 13:11:57;;;;;;;5.53;1.50;;;21.70;99.90;;;;;;5051004;28;20130;-71
2022/11/06 13:14:44;;;;;;;8.95;1.52;;;21.80;99.90;;;;;;5037064;28;20345;-69
2022/11/06 13:17:54;;;;;;;4.57;1.20;;;21.70;99.90;;;;;;5050877;28;20029;-70
2022/11/06 13:20:57;;;;;;;9.23;1.88;;;21.30;99.90;;;;;;5063513;28;20025;-68
2022/11/06 13:23:43;;;;;;;8.98;1.80;;;21.60;99.90;;;;;;5015879;28;20511;-70
2022/11/06 13:26:33;;;;;;;9.10;1.60;;;21.60;99.90;;;;;;5054747;28;20166;-69
2022/11/06 13:29:03;;;;;;;9.60;1.52;;;21.60;99.90;;;;;;5055483;28;20267;-71
2022/11/06 13:32:03;;;;;;;7.25;1.48;;;21.50;99.90;;;;;;5050959;28;20017;-71
2022/11/06 13:34:37;;;;;;;9.55;1.80;;;21.50;99.90;;;;;;5066021;28;20028;-71
2022/11/06 13:37:22;;;;;;;5.60;1.27;;;21.60;99.90;;;;;;5058443;28;20036;-68
2022/11/06 13:40:21;;;;;;;6.95;1.67;;;21.50;99.90;;;;;;5058053;28;20117;-71
2022/11/06 13:43:09;;;;;;;11.30;1.38;;;21.40;99.90;;;;;;5043036;28;20061;-71
2022/11/06 13:45:55;;;;;;;5.05;1.20;;;21.30;99.90;;;;;;5065476;28;20105;-70
2022/11/06 13:48:37;;;;;;;;;;;21.20;99.90;;;;;;5010697;28;20489;-70